createdAt,value
2022-11-29T00:02:47.007Z,98908.34
2022-11-29T00:05:48.674Z,98905.19
2022-11-29T00:08:50.413Z,98905.00
2022-11-29T00:12:10.765Z,98895.19
2022-11-29T00:15:12.350Z,98894.56
2022-11-29T00:18:14.102Z,98896.31
2022-11-29T00:21:15.731Z,98908.19
2022-11-29T00:24:17.677Z,98901.06
2022-11-29T00:27:19.292Z,98890.94
2022-11-29T00:30:21.519Z,98901.53
2022-11-29T00:33:23.120Z,98888.06
2022-11-29T00:36:25.141Z,98903.75
2022-11-29T00:39:27.172Z,98899.00
2022-11-29T00:42:28.758Z,98896.94
2022-11-29T00:45:30.371Z,98899.00
2022-11-29T00:48:32.597Z,98904.38
2022-11-29T00:51:34.285Z,98904.38
2022-11-29T00:54:35.914Z,98899.94
2022-11-29T00:57:37.556Z,98898.66
2022-11-29T01:00:39.144Z,98898.81
2022-11-29T01:03:40.925Z,98897.72
2022-11-29T01:06:42.522Z,98894.19
2022-11-29T01:09:44.085Z,98895.28
2022-11-29T01:12:45.806Z,98901.41
2022-11-29T01:15:55.804Z,98904.41
2022-11-29T01:18:57.398Z,98912.16
2022-11-29T01:21:59.059Z,98903.88
2022-11-29T01:25:00.804Z,98913.31
2022-11-29T01:28:02.444Z,98904.44
2022-11-29T01:31:12.586Z,98909.34
2022-11-29T01:34:14.284Z,98909.69
2022-11-29T01:37:16.262Z,98907.97
2022-11-29T01:40:18.495Z,98912.06
2022-11-29T01:43:21.075Z,98911.78
2022-11-29T01:46:23.089Z,98907.97
2022-11-29T01:49:30.518Z,98916.97
2022-11-29T01:52:32.953Z,98914.09
2022-11-29T01:55:39.152Z,98919.97
2022-11-29T01:58:45.227Z,98916.63
2022-11-29T02:01:46.912Z,98905.56
2022-11-29T02:04:49.609Z,98907.75
2022-11-29T02:07:54.823Z,98902.06
2022-11-29T02:11:31.982Z,98901.22
2022-11-29T02:14:33.526Z,98897.31
2022-11-29T02:18:04.489Z,98898.63
2022-11-29T02:21:16.620Z,98901.94
2022-11-29T02:24:27.436Z,98895.94
2022-11-29T02:27:51.521Z,98889.28
2022-11-29T02:31:01.864Z,98892.88
2022-11-29T02:34:06.599Z,98883.38
2022-11-29T02:37:36.999Z,98891.69
2022-11-29T02:41:22.504Z,98885.72
2022-11-29T02:44:30.078Z,98889.19
2022-11-29T02:47:44.451Z,98892.56
2022-11-29T02:51:07.046Z,98900.78
2022-11-29T02:54:43.011Z,98901.19
2022-11-29T02:57:49.563Z,98897.28
2022-11-29T03:01:06.812Z,98902.84
2022-11-29T03:04:27.180Z,98903.97
2022-11-29T03:08:09.242Z,98903.66
2022-11-29T03:11:29.466Z,98910.28
2022-11-29T03:14:49.951Z,98910.91
2022-11-29T03:18:22.610Z,98914.38
2022-11-29T03:21:56.230Z,98914.81
2022-11-29T03:25:12.432Z,98917.81
2022-11-29T03:28:21.947Z,98914.16
2022-11-29T03:31:26.593Z,98922.34
2022-11-29T03:34:47.447Z,98919.25
2022-11-29T03:37:58.803Z,98927.00
2022-11-29T03:41:32.694Z,98924.41
2022-11-29T03:44:59.297Z,98920.13
2022-11-29T03:48:05.405Z,98929.25
2022-11-29T03:51:11.291Z,98931.63
2022-11-29T03:54:58.561Z,98925.81
2022-11-29T03:58:18.942Z,98928.66
2022-11-29T04:01:59.177Z,98934.81
2022-11-29T04:05:28.227Z,98934.94
2022-11-29T04:09:03.346Z,98942.88
2022-11-29T04:12:32.265Z,98940.00
2022-11-29T04:15:49.120Z,98951.25
2022-11-29T04:18:56.939Z,98941.00
2022-11-29T04:22:17.532Z,98947.94
2022-11-29T04:25:34.271Z,98955.09
2022-11-29T04:29:01.737Z,98951.28
2022-11-29T04:32:03.232Z,98955.84
2022-11-29T04:35:33.108Z,98954.13
2022-11-29T04:39:13.315Z,98960.72
2022-11-29T04:42:20.862Z,98959.72
2022-11-29T04:45:43.781Z,98964.00
2022-11-29T04:49:05.443Z,98964.13
2022-11-29T04:52:17.068Z,98967.91
2022-11-29T04:56:03.891Z,98971.72
2022-11-29T04:59:23.853Z,98967.63
2022-11-29T05:02:40.615Z,98963.22
2022-11-29T05:05:51.104Z,98970.91
2022-11-29T05:09:00.003Z,98984.84
2022-11-29T05:12:48.423Z,98987.03
2022-11-29T05:15:50.536Z,98988.44
2022-11-29T05:19:11.683Z,99000.88
2022-11-29T05:22:32.887Z,98993.75
2022-11-29T05:26:01.499Z,98995.34
2022-11-29T05:29:42.266Z,99000.41
2022-11-29T05:33:37.756Z,98994.06
2022-11-29T05:36:57.837Z,98997.81
2022-11-29T05:40:27.449Z,98995.94
2022-11-29T05:43:41.333Z,98990.06
2022-11-29T05:46:55.800Z,99002.22
2022-11-29T05:50:12.889Z,99000.81
2022-11-29T05:53:14.496Z,99004.59
2022-11-29T05:56:48.594Z,99003.03
2022-11-29T05:59:51.931Z,99005.72
2022-11-29T06:03:12.328Z,99008.38
2022-11-29T06:06:22.887Z,99014.72
2022-11-29T06:09:37.742Z,99006.97
2022-11-29T06:12:42.727Z,99012.25
2022-11-29T06:15:46.199Z,99012.25
2022-11-29T06:18:53.528Z,99019.66
2022-11-29T06:22:32.325Z,99020.47
2022-11-29T06:25:44.243Z,99020.78
2022-11-29T06:29:04.657Z,99026.44
2022-11-29T06:32:40.305Z,99026.28
2022-11-29T06:36:14.672Z,99032.31
2022-11-29T06:39:16.677Z,99034.19
2022-11-29T06:42:18.503Z,99034.81
2022-11-29T06:45:21.851Z,99041.16
2022-11-29T06:48:27.275Z,99031.94
2022-11-29T06:51:51.971Z,99040.06
2022-11-29T06:55:12.603Z,99047.81
2022-11-29T06:58:24.459Z,99047.03
2022-11-29T07:02:13.505Z,99053.19
2022-11-29T07:05:22.084Z,99049.34
2022-11-29T07:08:24.489Z,99058.97
2022-11-29T07:11:27.449Z,99062.97
2022-11-29T07:14:29.441Z,99054.72
2022-11-29T07:18:07.710Z,99059.09
2022-11-29T07:21:12.631Z,99079.97
2022-11-29T07:24:41.957Z,99074.09
2022-11-29T07:28:19.801Z,99075.50
2022-11-29T07:31:36.878Z,99078.69
2022-11-29T07:37:07.291Z,99081.00
2022-11-29T07:40:19.484Z,99088.25
2022-11-29T07:43:33.390Z,99028.19
2022-11-29T07:46:35.051Z,99080.38
2022-11-29T07:49:36.733Z,99061.75
2022-11-29T07:52:38.640Z,99088.25
2022-11-29T07:55:40.446Z,99093.63
2022-11-29T07:58:42.962Z,99095.50
2022-11-29T08:01:44.779Z,99086.97
2022-11-29T08:04:46.959Z,99095.38
2022-11-29T08:07:49.391Z,99090.53
2022-11-29T08:10:51.079Z,99102.25
2022-11-29T08:13:58.281Z,99100.56
2022-11-29T08:16:59.945Z,99086.72
2022-11-29T08:20:04.273Z,99084.03
2022-11-29T08:23:06.359Z,99092.69
2022-11-29T08:26:07.994Z,99109.91
2022-11-29T08:29:09.874Z,99113.66
2022-11-29T08:32:11.741Z,99115.16
2022-11-29T08:35:13.458Z,99111.69
2022-11-29T08:38:15.154Z,99115.75
2022-11-29T08:41:17.900Z,99117.44
2022-11-29T08:44:19.654Z,99100.75
2022-11-29T08:47:36.421Z,99104.22
2022-11-29T08:50:38.069Z,99116.44
2022-11-29T08:53:43.349Z,99121.09
2022-11-29T08:57:37.325Z,99117.72
2022-11-29T09:00:07.972Z,99128.25
2022-11-29T09:03:28.488Z,99117.91
2022-11-29T09:06:37.133Z,99119.00
2022-11-29T09:09:38.868Z,99113.94
2022-11-29T09:12:40.718Z,99122.88
2022-11-29T09:15:43.701Z,99131.44
2022-11-29T09:18:51.289Z,99137.88
2022-11-29T09:21:54.059Z,99145.25
2022-11-29T09:24:55.821Z,99148.53
2022-11-29T09:28:01.822Z,99147.66
2022-11-29T09:31:13.184Z,99162.56
2022-11-29T09:34:16.481Z,99164.16
2022-11-29T09:37:18.042Z,99150.72
2022-11-29T09:40:25.543Z,99166.72
2022-11-29T09:43:37.259Z,99174.50
2022-11-29T09:46:39.366Z,99171.59
2022-11-29T09:50:18.938Z,99173.09
2022-11-29T09:53:36.003Z,99180.47
2022-11-29T09:56:49.843Z,99170.81
2022-11-29T09:59:57.132Z,99175.88
2022-11-29T10:03:09.881Z,99159.28
2022-11-29T10:06:38.706Z,99180.03
2022-11-29T10:10:08.471Z,99168.84
2022-11-29T10:13:27.924Z,99183.16
2022-11-29T10:16:44.831Z,99181.25
2022-11-29T10:19:52.805Z,99168.91
2022-11-29T10:23:00.099Z,99166.66
2022-11-29T10:26:02.190Z,99182.06
2022-11-29T10:29:04.310Z,99169.72
2022-11-29T10:32:13.838Z,99177.84
2022-11-29T10:35:19.270Z,99154.81
2022-11-29T10:38:36.281Z,99164.03
2022-11-29T10:41:38.588Z,99172.78
2022-11-29T10:44:40.234Z,99164.03
2022-11-29T10:47:43.270Z,99152.63
2022-11-29T10:50:48.681Z,99177.34
2022-11-29T10:53:54.600Z,99173.09
2022-11-29T10:56:58.945Z,99159.44
2022-11-29T11:00:08.761Z,99166.50
2022-11-29T11:03:38.207Z,99170.69
2022-11-29T11:06:46.292Z,99165.81
2022-11-29T11:09:51.545Z,99161.72
2022-11-29T11:13:19.600Z,99147.63
2022-11-29T11:16:25.769Z,99157.03
2022-11-29T11:19:32.891Z,99150.47
2022-11-29T11:22:39.327Z,99162.09
2022-11-29T11:25:41.098Z,99143.53
2022-11-29T11:28:56.401Z,99156.94
2022-11-29T11:31:59.784Z,99165.00
2022-11-29T11:35:02.324Z,99152.09
2022-11-29T11:38:04.059Z,99160.22
2022-11-29T11:41:11.768Z,99164.78
2022-11-29T11:44:51.999Z,99172.75
2022-11-29T11:48:00.093Z,99171.50
2022-11-29T11:51:02.090Z,99157.03
2022-11-29T11:54:03.866Z,99157.34
2022-11-29T11:57:15.871Z,99127.13
2022-11-29T12:01:03.063Z,99177.44
2022-11-29T12:04:22.897Z,99175.03
2022-11-29T12:08:06.097Z,99167.41
2022-11-29T12:11:07.220Z,99169.38
2022-11-29T12:14:24.110Z,99180.69
2022-11-29T12:17:45.562Z,99184.34
2022-11-29T12:20:53.202Z,99182.44
2022-11-29T12:24:02.263Z,99160.25
2022-11-29T12:27:05.716Z,99184.09
2022-11-29T12:30:15.255Z,99183.59
2022-11-29T12:33:35.993Z,99191.56
2022-11-29T12:36:40.669Z,99187.66
2022-11-29T12:39:52.848Z,99169.38
2022-11-29T12:43:15.380Z,99190.34
2022-11-29T12:46:28.686Z,99182.88
2022-11-29T12:49:52.247Z,99193.03
2022-11-29T12:53:15.724Z,99193.63
2022-11-29T12:56:35.981Z,99190.81
2022-11-29T13:00:02.499Z,99194.41
2022-11-29T13:03:28.388Z,99201.81
2022-11-29T13:06:46.753Z,99202.22
2022-11-29T13:09:51.299Z,99202.41
2022-11-29T13:12:58.589Z,99205.41
2022-11-29T13:16:35.301Z,99202.41
2022-11-29T13:20:17.326Z,99201.91
2022-11-29T13:23:39.103Z,99214.16
2022-11-29T13:26:44.815Z,99184.69
2022-11-29T13:29:47.705Z,99183.22
2022-11-29T13:33:16.593Z,99205.75
2022-11-29T13:36:42.176Z,99202.22
2022-11-29T13:39:46.833Z,99215.88
2022-11-29T13:43:30.292Z,99213.19
2022-11-29T13:46:46.402Z,99215.31
2022-11-29T13:49:54.445Z,99216.94
2022-11-29T13:53:04.818Z,99215.94
2022-11-29T13:56:06.938Z,99214.06
2022-11-29T13:59:17.520Z,99209.91
2022-11-29T14:02:31.790Z,99219.81
2022-11-29T14:05:40.442Z,99222.31
2022-11-29T14:12:28.953Z,99230.44
2022-11-29T14:15:33.346Z,99217.91
2022-11-29T14:18:38.446Z,99230.44
2022-11-29T14:21:59.027Z,99234.09
2022-11-29T14:25:11.781Z,99232.53
2022-11-29T14:28:27.860Z,99236.56
2022-11-29T14:31:51.344Z,99214.84
2022-11-29T14:35:21.564Z,99231.34
2022-11-29T14:38:47.283Z,99233.94
2022-11-29T14:42:17.039Z,99233.75
2022-11-29T14:45:27.083Z,99232.66
2022-11-29T14:48:32.937Z,99237.41
2022-11-29T14:51:36.425Z,99235.16
2022-11-29T14:55:02.656Z,99234.47
2022-11-29T15:02:21.088Z,99243.75
2022-11-29T15:05:35.194Z,99255.78
2022-11-29T15:09:01.901Z,99253.03
2022-11-29T15:12:18.710Z,99245.41
2022-11-29T15:15:57.904Z,99254.13
2022-11-29T15:19:31.056Z,99253.84
2022-11-29T15:23:02.073Z,99266.78
2022-11-29T15:26:04.312Z,99251.84
2022-11-29T15:29:19.062Z,99261.03
2022-11-29T15:56:04.220Z,99272.69
2022-11-29T16:00:19.969Z,99289.13
2022-11-29T16:18:20.288Z,99279.19
2022-11-29T16:21:29.860Z,99285.25
2022-11-29T16:24:33.921Z,99290.94
2022-11-29T16:28:23.762Z,99288.84
2022-11-29T16:32:00.531Z,99249.47
2022-11-29T16:35:50.302Z,99292.81
2022-11-29T16:39:39.364Z,99262.00
2022-11-29T16:43:43.398Z,99303.38
2022-11-29T16:50:47.043Z,99274.91
2022-11-29T16:54:27.739Z,99250.94
2022-11-29T16:58:24.037Z,99251.03
2022-11-29T17:06:15.066Z,99293.22
2022-11-29T17:12:04.124Z,99257.19
2022-11-29T17:22:15.880Z,99306.56
2022-11-29T17:26:02.078Z,99248.75
2022-11-29T17:29:49.940Z,99256.81
2022-11-29T17:33:25.976Z,99266.94
2022-11-29T17:36:41.324Z,99263.16
2022-11-29T17:39:55.161Z,99261.06
2022-11-29T17:43:09.245Z,99264.25
2022-11-29T17:46:49.577Z,99306.66
2022-11-29T17:49:51.271Z,99315.50
2022-11-29T17:52:53.218Z,99299.38
2022-11-29T17:55:55.033Z,99319.09
2022-11-29T17:58:59.002Z,99312.41
2022-11-29T18:02:02.214Z,99282.66
2022-11-29T18:05:07.452Z,99318.09
2022-11-29T18:08:09.511Z,99316.19
2022-11-29T18:11:13.584Z,99305.75
2022-11-29T18:14:18.648Z,99289.03
2022-11-29T18:17:20.374Z,99352.50
2022-11-29T18:20:22.279Z,99311.09
2022-11-29T18:23:24.179Z,99335.69
2022-11-29T18:26:27.617Z,99348.44
2022-11-29T18:29:34.174Z,99338.19
2022-11-29T18:32:39.357Z,99332.22
2022-11-29T18:35:41.019Z,99325.56
2022-11-29T18:38:44.419Z,99355.13
2022-11-29T18:41:50.258Z,99350.81
2022-11-29T18:44:55.976Z,99343.56
2022-11-29T18:48:00.618Z,99320.59
2022-11-29T18:51:05.134Z,99348.94
2022-11-29T18:54:06.931Z,99338.78
2022-11-29T18:57:08.641Z,99342.75
2022-11-29T19:00:11.067Z,99351.31
2022-11-29T19:03:12.987Z,99319.88
2022-11-29T19:06:17.468Z,99342.56
2022-11-29T19:09:21.644Z,99336.00
2022-11-29T19:12:23.673Z,99334.41
2022-11-29T19:15:25.848Z,99336.00
2022-11-29T19:18:29.261Z,99359.59
2022-11-29T19:21:34.788Z,99343.75
2022-11-29T19:24:41.292Z,99356.31
2022-11-29T19:27:45.886Z,99309.31
2022-11-29T19:30:54.910Z,99366.66
2022-11-29T19:33:57.749Z,99328.94
2022-11-29T19:36:59.718Z,99353.31
2022-11-29T19:40:01.495Z,99364.88
2022-11-29T19:43:03.214Z,99318.97
2022-11-29T19:46:12.691Z,99363.38
2022-11-29T19:49:14.821Z,99359.66
2022-11-29T19:52:16.474Z,99338.78
2022-11-29T19:55:18.162Z,99335.09
2022-11-29T19:58:20.901Z,99375.50
2022-11-29T20:01:25.439Z,99372.22
2022-11-29T20:04:27.455Z,99371.03
2022-11-29T20:07:29.161Z,99352.22
2022-11-29T20:10:30.869Z,99368.16
2022-11-29T20:13:32.906Z,99379.09
2022-11-29T20:16:34.762Z,99375.81
2022-11-29T20:19:36.553Z,99364.38
2022-11-29T20:22:38.374Z,99368.94
2022-11-29T20:25:40.035Z,99362.28
2022-11-29T20:28:41.947Z,99377.41
2022-11-29T20:31:50.058Z,99372.31
2022-11-29T20:34:53.052Z,99365.75
2022-11-29T20:38:40.506Z,99388.34
2022-11-29T20:42:05.411Z,99384.84
2022-11-29T20:45:09.100Z,99382.19
2022-11-29T20:48:17.151Z,99368.34
2022-11-29T20:51:22.484Z,99359.06
2022-11-29T20:54:24.229Z,99386.47
2022-11-29T20:57:25.917Z,99383.78
2022-11-29T21:00:27.599Z,99389.94
2022-11-29T21:03:30.203Z,99379.31
2022-11-29T21:06:34.396Z,99387.84
2022-11-29T21:09:36.065Z,99384.16
2022-11-29T21:12:38.728Z,99382.59
2022-11-29T21:15:40.934Z,99391.13
2022-11-29T21:18:43.012Z,99392.44
2022-11-29T21:22:19.914Z,99397.69
2022-11-29T21:25:42.852Z,99393.94
2022-11-29T21:28:57.584Z,99395.91
2022-11-29T21:32:00.924Z,99396.94
2022-11-29T21:35:03.920Z,99396.94
2022-11-29T21:38:06.835Z,99385.16
2022-11-29T21:41:08.416Z,99382.00
2022-11-29T21:44:10.106Z,99387.38
2022-11-29T21:47:11.982Z,99377.22
2022-11-29T21:50:13.967Z,99386.56
2022-11-29T21:53:15.613Z,99392.63
2022-11-29T21:56:17.400Z,99382.88
2022-11-29T21:59:19.051Z,99379.38
2022-11-29T22:02:20.920Z,99388.72
2022-11-29T22:05:22.801Z,99373.81
2022-11-29T22:08:24.687Z,99371.50
2022-11-29T22:11:34.087Z,99382.38
2022-11-29T22:14:35.800Z,99373.41
2022-11-29T22:17:37.442Z,99391.94
2022-11-29T22:20:39.285Z,99390.81
2022-11-29T22:23:41.181Z,99389.47
2022-11-29T22:26:43.991Z,99387.38
2022-11-29T22:29:45.979Z,99398.88
2022-11-29T22:32:48.920Z,99399.41
2022-11-29T22:35:50.520Z,99405.28
2022-11-29T22:38:52.710Z,99401.50
2022-11-29T22:41:55.421Z,99400.97
2022-11-29T22:44:58.830Z,99399.63
2022-11-29T22:48:01.310Z,99400.69
2022-11-29T22:51:07.529Z,99407.97
2022-11-29T22:54:11.851Z,99396.00
2022-11-29T22:57:13.831Z,99391.94
2022-11-29T23:00:15.577Z,99399.09
2022-11-29T23:03:17.465Z,99398.28
2022-11-29T23:06:22.093Z,99390.53
2022-11-29T23:09:23.895Z,99389.34
2022-11-29T23:12:25.992Z,99392.44
2022-11-29T23:15:28.060Z,99378.41
2022-11-29T23:18:30.231Z,99384.47
2022-11-29T23:21:35.290Z,99396.19
2022-11-29T23:24:39.227Z,99379.69
2022-11-29T23:27:41.080Z,99387.16
2022-11-29T23:30:43.212Z,99387.56
2022-11-29T23:33:45.497Z,99398.88
2022-11-29T23:36:52.634Z,99393.63
2022-11-29T23:39:54.981Z,99391.31
2022-11-29T23:42:56.678Z,99400.41
2022-11-29T23:45:58.922Z,99398.00
2022-11-29T23:49:00.701Z,99369.22
2022-11-29T23:52:02.648Z,99381.97
2022-11-29T23:55:05.014Z,99382.56
2022-11-29T23:58:07.027Z,99390.72
